Data ze zpráv METAR

Na této stránce "Data ze zpráv METAR" si můžete prohlédnout aktuální data o počasí z českých letišť.

LKKB - Kbely, Czech Republic
Distance from station: JJZ 98km
Aktualizováno v: 15/11/2018 07:00
Mist, Polojasno
Mist, Polojasno
 Vítr od calm
Vítr: Bezvětří
Teplota vzduchu: 1°C
Rosný bod: 0°C
Vlhkost: 93%
Tlak vzduchu: 1029 hPa
Souhrn: Mist
Clouds: Polojasno
Visibility: 5 km
Cloud details: Polojasno 3048 m
2018/11/15 06:00 LKKB 150600Z 00000KT 5000 BR SCT100 01/00 Q1029 NOSIG
LKPR - Prague/Ruzyne, Czech Republic
Distance from station: JJZ 108km
Aktualizováno v: 15/11/2018 07:00
Polojasno
Polojasno
 Vítr od varies
Vítr: varies 4 km/h
Teplota vzduchu: 2°C
Rosný bod: 1°C
Vlhkost: 93%
Tlak vzduchu: 1029 hPa
Clouds: Polojasno
Visibility: 7 km
2018/11/15 06:00 LKPR 150600Z VRB02KT 7000 NSC 02/01 Q1029 NOSIG
 
LKPD - Pardubice, Czech Republic
Distance from station: JJV 111km
Aktualizováno v: 15/11/2018 07:00
Jasno
Jasno
 Vítr od V
Vítr: V 4 km/h
Teplota vzduchu: 2°C
Rosný bod: 1°C
Vlhkost: 93%
Tlak vzduchu: 1030 hPa
Souhrn: Jasno
Visibility: greater than 10 km
2018/11/15 06:00 LKPD 150600Z 08002KT CAVOK 02/01 Q1030 RMK BLACK
LKCV - Caslav, Czech Republic
Distance from station: JJV 113km
Aktualizováno v: 15/11/2018 07:00
Polojasno
Polojasno
 Vítr od calm
Vítr: Bezvětří
Teplota vzduchu: 2°C
Rosný bod: 1°C
Vlhkost: 93%
Tlak vzduchu: 1030 hPa
Clouds: Polojasno
Visibility: 9 km
2018/11/15 06:00 LKCV 150600Z 00000KT 9000 NSC 02/01 Q1030 NOSIG RMK BLU BLU
 
LKKV - Karlovy Vary, Czech Republic
Distance from station: ZJZ 173km
Aktualizováno v: 15/11/2018 07:00
Patches of fog, Shallow, Fog, Polojasno
Patches of fog, Shallow, Fog, Polojasno
 Vítr od varies
Vítr: varies 2 km/h
Teplota vzduchu: 0°C
Rosný bod: 0°C
Vlhkost: 100%
Tlak vzduchu: 1028 hPa
Souhrn: Patches of fog, Shallow, Fog
Clouds: Polojasno
Visibility: 10 km
2018/11/15 06:00 LKKV 150600Z VRB01KT 9999 0800SE R29/0650 BCFG MIFG NSC M00/M00 Q1028
LKLN - Plzen Line, Czech Republic
Distance from station: JZ 189km
Aktualizováno v: 15/11/2018 07:20
Fog, Zataženo
Fog, Zataženo
 Vítr od varies
Vítr: varies 2 km/h
Teplota vzduchu: -1°C
Rosný bod: -1°C
Vlhkost: 100%
Tlak vzduchu: 1030 hPa
Souhrn: Fog
Clouds: Zataženo
Visibility: 0 km
Cloud details: Zataženo 61 m
2018/11/15 06:20 LKLN 150620Z AUTO VRB01KT 0150 FG VV002 M01/M01 Q1030
 
LKNA - Namest, Czech Republic
Distance from station: JJV 209km
Aktualizováno v: 15/11/2018 07:00
Polojasno
Polojasno
 Vítr od S
Vítr: S 9 km/h
Teplota vzduchu: 2°C
Wind Chill: -1°C
Rosný bod: 1°C
Vlhkost: 93%
Tlak vzduchu: 1029 hPa
Clouds: Polojasno
Visibility: 8 km
2018/11/15 06:00 LKNA 150600Z 01005KT 8000 NSC 02/01 Q1029 NOSIG RMK BLU BLU
LKTB - Brno/Turany, Czech Republic
Distance from station: JJV 230km
Aktualizováno v: 15/11/2018 07:00
Jasno
Jasno
 Vítr od ZSZ
Vítr: ZSZ 6 km/h
Teplota vzduchu: 2°C
Rosný bod: 1°C
Vlhkost: 93%
Tlak vzduchu: 1030 hPa
Souhrn: Jasno
Visibility: greater than 10 km
2018/11/15 06:00 LKTB 150600Z 30003KT CAVOK 02/01 Q1030 NOSIG